createdAt,value
2018-02-20T06:02:45.434Z,59.08
2018-02-20T06:05:13.491Z,55.53
2018-02-20T06:07:42.476Z,60.97
2018-02-20T06:10:09.981Z,57.55
2018-02-20T06:12:39.161Z,58.97
2018-02-20T06:15:08.043Z,62.20
2018-02-20T06:47:38.457Z,63.95
2018-02-20T06:50:05.966Z,61.88
2018-02-20T06:52:33.458Z,61.15
2018-02-20T06:55:01.024Z,63.58
2018-02-20T06:57:28.597Z,59.00
2018-02-20T06:59:56.106Z,55.15
2018-02-20T07:02:23.633Z,59.83
2018-02-20T07:04:51.252Z,60.00
2018-02-20T07:07:18.754Z,58.03
2018-02-20T07:09:46.259Z,59.67
2018-02-20T07:12:14.007Z,58.00
2018-02-20T07:14:41.496Z,67.32
2018-02-20T07:17:11.012Z,60.25
2018-02-20T07:19:38.530Z,57.72
2018-02-20T07:22:06.849Z,56.40
2018-02-20T07:24:34.364Z,58.70
2018-02-20T07:27:01.857Z,60.33
2018-02-20T07:29:29.392Z,60.10
2018-02-20T07:31:56.917Z,57.42
2018-02-20T07:34:24.454Z,56.92
2018-02-20T07:36:51.970Z,55.12
2018-02-20T07:39:19.464Z,55.92
2018-02-20T07:41:47.158Z,57.38
2018-02-20T07:44:14.657Z,63.28
2018-02-20T07:46:42.185Z,59.85
2018-02-20T07:49:09.683Z,59.20
2018-02-20T07:51:37.201Z,60.60
2018-02-20T07:54:04.800Z,54.88
2018-02-20T07:56:32.317Z,60.35
2018-02-20T07:58:59.823Z,62.35
2018-02-20T08:01:28.483Z,60.45
2018-02-20T08:03:56.769Z,61.40
2018-02-20T08:06:24.336Z,61.95
2018-02-20T08:08:51.874Z,56.03
2018-02-20T08:11:20.152Z,57.85
2018-02-20T08:13:48.437Z,55.40
2018-02-20T08:16:16.558Z,55.78
2018-02-20T08:18:44.064Z,60.08
2018-02-20T08:21:11.625Z,55.88
2018-02-20T08:23:39.173Z,56.53
2018-02-20T08:26:06.830Z,55.83
2018-02-20T08:28:35.222Z,60.08
2018-02-20T08:31:03.388Z,59.10
2018-02-20T08:33:31.650Z,55.75
2018-02-20T08:35:59.260Z,57.83
2018-02-20T08:38:26.754Z,58.72
2018-02-20T08:40:54.360Z,57.47
2018-02-20T08:43:22.089Z,58.47
2018-02-20T08:45:50.356Z,54.97
2018-02-20T08:48:18.675Z,61.17
2018-02-20T08:50:46.213Z,59.03
2018-02-20T08:53:13.757Z,63.15
2018-02-20T08:55:42.186Z,60.10
2018-02-20T08:58:09.829Z,59.23
2018-02-20T09:00:37.391Z,57.08
2018-02-20T09:03:05.812Z,62.13
2018-02-20T09:05:33.312Z,55.50
2018-02-20T09:08:01.621Z,57.13
2018-02-20T09:10:29.425Z,60.30
2018-02-20T09:12:58.515Z,57.55
2018-02-20T09:15:26.404Z,57.33
2018-02-20T09:17:54.825Z,58.93
2018-02-20T09:20:22.347Z,57.17
2018-02-20T09:22:51.361Z,60.80
2018-02-20T09:25:19.980Z,60.40
2018-02-20T09:27:47.805Z,57.80
2018-02-20T09:30:16.432Z,56.73
2018-02-20T09:32:44.047Z,58.73
2018-02-20T09:35:13.258Z,61.90
2018-02-20T09:37:40.786Z,60.00
2018-02-20T09:40:09.066Z,64.03
2018-02-20T09:42:37.314Z,54.63
2018-02-20T09:45:05.330Z,54.90
2018-02-20T09:47:32.841Z,54.63
2018-02-20T09:50:00.930Z,58.43
2018-02-20T09:52:30.692Z,52.37
2018-02-20T09:54:59.561Z,54.00
2018-02-20T09:57:28.159Z,62.47
2018-02-20T09:59:57.649Z,59.27
2018-02-20T10:02:25.242Z,61.00
2018-02-20T10:04:59.073Z,59.50
2018-02-20T10:07:26.857Z,57.30
2018-02-20T10:09:54.453Z,54.60
2018-02-20T10:12:22.726Z,54.80
2018-02-20T10:14:50.220Z,56.60
2018-02-20T10:17:18.514Z,57.37
2018-02-20T10:19:50.409Z,56.53
2018-02-20T10:22:19.549Z,47.33
2018-02-20T10:24:48.916Z,45.70
2018-02-20T10:27:17.778Z,47.50
2018-02-20T10:29:45.370Z,50.20
2018-02-20T10:32:12.882Z,46.30
2018-02-20T10:34:43.892Z,34.77
2018-02-20T10:37:14.225Z,46.30
2018-02-20T10:39:42.681Z,48.53
2018-02-20T10:42:11.540Z,47.17
2018-02-20T10:44:39.862Z,48.17
2018-02-20T10:47:07.451Z,52.47
2018-02-20T10:49:36.266Z,45.97
2018-02-20T10:52:04.617Z,40.33
2018-02-20T10:54:33.700Z,45.37
2018-02-20T10:57:01.297Z,46.43
2018-02-20T10:59:29.499Z,43.00
2018-02-20T11:01:58.951Z,45.90
2018-02-20T11:04:27.026Z,47.53
2018-02-20T11:06:54.573Z,50.33
2018-02-20T11:09:22.131Z,53.23
2018-02-20T11:11:50.401Z,50.80
2018-02-20T11:14:17.944Z,44.80
2018-02-20T11:16:45.506Z,42.43
2018-02-20T11:19:13.021Z,43.37
2018-02-20T11:21:40.775Z,41.53
2018-02-20T11:24:09.034Z,41.43
2018-02-20T11:26:36.594Z,42.47
2018-02-20T11:29:04.279Z,44.83
2018-02-20T11:31:31.815Z,48.73
2018-02-20T11:33:59.424Z,53.27
2018-02-20T11:36:27.655Z,55.37
2018-02-20T11:38:56.677Z,48.47
2018-02-20T11:41:24.193Z,48.77
2018-02-20T11:43:53.904Z,50.53
2018-02-20T11:46:22.910Z,47.03
2018-02-20T11:48:51.195Z,55.77
2018-02-20T11:51:19.455Z,55.13
2018-02-20T11:53:46.974Z,53.30
2018-02-20T11:56:14.855Z,56.10
2018-02-20T11:58:42.396Z,54.67
2018-02-20T12:01:10.455Z,58.87
2018-02-20T12:03:38.000Z,55.80
2018-02-20T12:06:05.751Z,54.37
2018-02-20T12:08:33.404Z,53.10
2018-02-20T12:11:01.692Z,55.10
2018-02-20T12:13:29.197Z,54.10
2018-02-20T12:15:56.716Z,52.77
2018-02-20T12:18:24.201Z,53.63
2018-02-20T12:20:51.724Z,57.07
2018-02-20T12:23:19.229Z,57.33
2018-02-20T12:25:46.864Z,52.77
2018-02-20T12:28:14.366Z,57.67
2018-02-20T12:30:41.949Z,55.20
2018-02-20T12:33:10.629Z,55.83
2018-02-20T12:35:38.123Z,53.27
2018-02-20T12:38:05.637Z,55.03
2018-02-20T12:40:33.137Z,53.23
2018-02-20T12:43:00.669Z,53.30
2018-02-20T12:45:28.172Z,47.70
2018-02-20T12:47:55.864Z,48.87
2018-02-20T12:50:23.316Z,50.63
2018-02-20T12:52:51.740Z,45.83
2018-02-20T12:55:20.122Z,45.10
2018-02-20T12:57:47.619Z,46.97
2018-02-20T13:00:15.172Z,48.17
2018-02-20T13:02:42.817Z,49.73
2018-02-20T13:05:10.343Z,47.13
2018-02-20T13:07:37.865Z,46.83
2018-02-20T13:10:05.384Z,47.47
2018-02-20T13:12:32.982Z,44.87
2018-02-20T13:15:00.488Z,48.63
2018-02-20T13:17:28.015Z,51.77
2018-02-20T13:19:55.526Z,47.20
2018-02-20T13:22:23.128Z,46.70
2018-02-20T13:24:50.666Z,46.27
2018-02-20T14:03:56.991Z,49.10
2018-02-20T14:06:24.904Z,56.57
2018-02-20T14:08:52.439Z,45.67
2018-02-20T14:11:19.953Z,58.53
2018-02-20T14:13:47.716Z,66.27
2018-02-20T14:16:15.610Z,47.93
2018-02-20T14:18:43.211Z,46.50
2018-02-20T14:21:10.724Z,42.30
2018-02-20T14:23:38.226Z,42.90
2018-02-20T14:26:06.020Z,47.93
2018-02-20T14:28:33.542Z,52.73
2018-02-20T14:31:01.258Z,65.20
2018-02-20T14:33:28.774Z,48.13
2018-02-20T14:35:56.326Z,36.93
2018-02-20T14:38:23.870Z,37.63
2018-02-20T14:40:51.384Z,37.03
2018-02-20T14:43:19.169Z,39.27
2018-02-20T14:45:46.659Z,41.80
2018-02-20T14:48:14.177Z,42.93
2018-02-20T14:50:41.685Z,39.43
2018-02-20T14:53:09.307Z,41.10
2018-02-20T14:55:36.910Z,41.00
2018-02-20T14:58:04.460Z,42.10
2018-02-20T15:00:32.862Z,47.47
2018-02-20T15:03:01.360Z,49.33
2018-02-20T15:05:30.048Z,46.58
2018-02-20T15:07:57.602Z,44.80
2018-02-20T15:10:26.844Z,41.20
2018-02-20T15:12:54.490Z,44.00
2018-02-20T15:15:22.194Z,46.15
2018-02-20T15:17:49.720Z,48.83
2018-02-20T15:20:18.020Z,54.10
2018-02-20T15:22:45.538Z,53.35
2018-02-20T15:25:13.041Z,53.10
2018-02-20T15:27:40.570Z,60.35
2018-02-20T15:30:08.840Z,57.17
2018-02-20T15:32:36.394Z,67.30
2018-02-20T15:35:03.945Z,59.20
2018-02-20T15:37:32.363Z,61.72
2018-02-20T15:39:59.922Z,59.92
2018-02-20T15:42:27.457Z,65.32
2018-02-20T15:44:55.028Z,61.42
2018-02-20T15:47:23.416Z,59.30
2018-02-20T15:49:50.981Z,67.95
2018-02-20T15:52:18.511Z,64.87
2018-02-20T15:54:47.547Z,62.90
2018-02-20T15:57:15.977Z,69.85
2018-02-20T15:59:46.027Z,63.15
2018-02-20T16:02:13.543Z,64.45
2018-02-20T16:04:41.866Z,66.93
2018-02-20T16:07:09.384Z,67.55
2018-02-20T16:09:37.012Z,66.05
2018-02-20T16:12:04.550Z,69.93
2018-02-20T16:14:32.826Z,72.80
2018-02-20T16:17:01.386Z,81.00
2018-02-20T16:19:28.941Z,76.18
2018-02-20T16:21:56.832Z,70.57
2018-02-20T16:24:24.366Z,65.75
2018-02-20T16:26:51.894Z,70.50
2018-02-20T16:29:19.426Z,68.72
2018-02-20T16:31:47.268Z,68.97
2018-02-20T16:34:14.778Z,71.47
2018-02-20T16:36:42.284Z,73.82
2018-02-20T16:39:09.867Z,73.12
2018-02-20T16:41:37.404Z,79.03
2018-02-20T16:44:05.051Z,76.72
2018-02-20T16:46:32.595Z,84.32
2018-02-20T16:49:00.238Z,89.78
2018-02-20T16:51:27.776Z,86.32
2018-02-20T16:53:55.276Z,85.32
2018-02-20T16:56:22.807Z,84.25
2018-02-20T16:58:50.348Z,81.90
2018-02-20T17:01:17.854Z,80.25
2018-02-20T17:03:45.379Z,89.25
2018-02-20T17:06:14.263Z,85.05
2018-02-20T17:08:41.804Z,85.40
2018-02-20T17:11:09.359Z,83.35
2018-02-20T17:13:36.874Z,82.10
2018-02-20T17:16:04.380Z,87.18
2018-02-20T17:18:31.915Z,86.63
2018-02-20T17:20:59.590Z,81.45
2018-02-20T17:23:27.765Z,92.85
2018-02-20T17:25:55.271Z,84.18
2018-02-20T17:28:22.797Z,90.38
2018-02-20T17:30:50.310Z,86.50
2018-02-20T17:33:19.333Z,83.50
2018-02-20T17:35:46.849Z,86.10
2018-02-20T17:38:14.349Z,86.85
2018-02-20T17:40:41.946Z,94.93
2018-02-20T17:43:09.469Z,97.28
2018-02-20T17:45:37.048Z,94.57
2018-02-20T17:48:04.615Z,99.05
2018-02-20T17:50:32.244Z,95.62
2018-02-20T17:52:59.756Z,104.35
2018-02-20T17:55:27.269Z,99.32
2018-02-20T17:57:54.783Z,99.45
2018-02-20T18:00:22.296Z,109.20
2018-02-20T18:02:49.866Z,106.85
2018-02-20T18:05:17.602Z,99.97
2018-02-20T18:07:46.283Z,99.78
2018-02-20T18:10:13.795Z,106.22
2018-02-20T18:12:42.008Z,105.70
2018-02-20T18:15:10.400Z,108.32
2018-02-20T18:17:37.944Z,102.85
2018-02-20T18:20:07.044Z,108.47
2018-02-20T18:22:36.535Z,111.12
2018-02-20T18:25:10.370Z,105.22
2018-02-20T18:27:37.888Z,101.90
2018-02-20T18:30:06.607Z,111.25
2018-02-20T18:32:35.699Z,150.15
2018-02-20T18:35:04.764Z,127.40
2018-02-20T18:37:32.347Z,108.80
2018-02-20T18:39:59.887Z,113.05
2018-02-20T18:42:27.395Z,109.63
2018-02-20T18:44:55.059Z,109.10
2018-02-20T18:47:22.578Z,117.55
2018-02-20T18:49:50.295Z,107.63
2018-02-20T18:52:17.811Z,111.82
2018-02-20T18:54:46.177Z,109.75
2018-02-20T18:57:13.668Z,104.97
2018-02-20T19:53:37.928Z,103.07
2018-02-20T19:56:06.378Z,117.18
2018-02-20T19:58:33.913Z,113.68
2018-02-20T20:01:02.142Z,115.80
2018-02-20T20:03:30.239Z,106.63
2018-02-20T20:05:58.690Z,108.20
2018-02-20T20:08:27.412Z,109.15
2018-02-20T20:10:54.953Z,106.63
2018-02-20T20:24:25.626Z,101.65
2018-02-20T20:26:53.155Z,105.50
2018-02-20T20:29:21.616Z,99.22
2018-02-20T20:31:50.045Z,99.62
2018-02-20T20:34:18.831Z,104.18
2018-02-20T20:36:48.635Z,98.57
2018-02-20T20:39:16.271Z,100.07
2018-02-20T20:41:43.866Z,101.65
2018-02-20T20:44:11.376Z,98.95
2018-02-20T20:46:39.668Z,104.18
2018-02-20T20:49:07.214Z,107.32
2018-02-20T20:51:36.114Z,90.90
2018-02-20T20:54:04.841Z,89.00
2018-02-20T20:56:32.492Z,100.30
2018-02-20T20:59:00.107Z,96.63
2018-02-20T21:01:28.491Z,94.70
2018-02-20T21:03:55.995Z,88.03
2018-02-20T21:06:23.633Z,98.45
2018-02-20T21:08:51.147Z,94.25
2018-02-20T21:11:18.661Z,97.22
2018-02-20T21:13:46.178Z,98.80
2018-02-20T21:16:13.687Z,94.07
2018-02-20T21:18:41.333Z,92.62
2018-02-20T21:21:08.860Z,96.15
2018-02-20T21:23:37.160Z,96.63
2018-02-20T21:26:04.656Z,90.35
2018-02-20T21:28:32.193Z,91.47
2018-02-20T21:30:59.728Z,85.72
2018-02-20T21:33:27.260Z,79.53
2018-02-20T21:35:54.784Z,83.90
2018-02-20T21:38:22.290Z,86.70
2018-02-20T21:40:49.968Z,88.55
2018-02-20T21:43:17.819Z,81.80
2018-02-20T21:45:46.229Z,85.05
2018-02-20T21:48:13.758Z,82.95
2018-02-20T21:50:42.066Z,87.18
2018-02-20T21:53:09.591Z,85.65
2018-02-20T21:55:37.980Z,89.82
2018-02-20T21:58:05.509Z,90.62
2018-02-20T22:00:33.763Z,92.93
2018-02-20T22:03:01.295Z,92.22
2018-02-20T22:05:28.824Z,89.00
2018-02-20T22:07:56.357Z,88.55
2018-02-20T22:10:23.864Z,88.47
2018-02-20T22:12:51.354Z,87.97
2018-02-20T22:15:18.897Z,90.65
2018-02-20T22:17:46.394Z,90.25
2018-02-20T22:20:13.929Z,92.18
2018-02-20T22:22:41.425Z,91.75
2018-02-20T22:25:08.923Z,96.57
2018-02-20T22:27:36.463Z,94.90
